Maria — SV7156 — position and weather

sailwx.info

Track history (hours):
 
Tides and Currents Weather Stations Pressure Air Temp Water Temp Dewpoint Dewpoint Depression Visibility Wind Speed Wind Dir Waves Ship Positions

Maria

Last reported at 2016-Sep-28 16:33 UTC. Time now 2016-Sep-29 01:41 UTC.
Position N 37°57' E 023°35'.

Length 74 m; draft 4.5 m.

Type: Ship. MMSI: 237493000.

Date/timePositionNaut miles runAvg speedWind from/ knotsBaromVisibWave heightAir tempDewpointWater temp
2016-Sep-28 16:33N 37°57' E 023°35'3 2.9
2016-Sep-28 15:33N 37°56' E 023°38'0 0.0
2016-Sep-28 12:33N 37°56' E 023°38'0 0.0
2016-Sep-28 08:33N 37°56' E 023°38'3 0.2
2016-Sep-27 14:34N 37°57' E 023°35'3 3.1
2016-Sep-27 13:34N 37°55' E 023°33'4 1.2
2016-Sep-27 10:34N 37°57' E 023°36'4 0.4
2016-Sep-27 00:33N 38°02' E 023°35'1 0.2
2016-Sep-26 20:28N 38°02' E 023°36'0 0.0
2016-Sep-26 19:33N 38°02' E 023°36'1 0.2
2016-Sep-26 15:33N 38°02' E 023°35'0 0.0
2016-Sep-26 13:34N 38°02' E 023°35'0 0.0
2016-Sep-26 11:34N 38°02' E 023°35'4 1.5
2016-Sep-26 08:33N 37°58' E 023°33'1 0.1
2016-Sep-25 17:14N 37°58' E 023°35'2 3.6
2016-Sep-25 16:33N 37°56' E 023°37'0 0.5
2016-Sep-25 15:33N 37°56' E 023°38'0 0.0
2016-Sep-25 14:33N 37°56' E 023°38'0 0.0
2016-Sep-25 12:34N 37°56' E 023°38'0 0.0
2016-Sep-25 11:33N 37°56' E 023°38'0 0.0
2016-Sep-25 10:34N 37°56' E 023°38'3 2.9
2016-Sep-25 09:34N 37°58' E 023°35'0 0.0
2016-Sep-24 22:16N 37°58' E 023°35'4 5.3
2016-Sep-24 21:33N 37°54' E 023°33'1 0.5
2016-Sep-24 19:34N 37°53' E 023°33'0 0.4
2016-Sep-24 18:34N 37°54' E 023°33'4 4.3
2016-Sep-24 17:34N 37°58' E 023°35'0 0.0
2016-Sep-23 09:33N 37°58' E 023°35'0 0.0
2016-Sep-23 06:33N 37°58' E 023°35'4 0.2
2016-Sep-22 12:33N 38°02' E 023°36'1 0.1
2016-Sep-22 04:33N 38°02' E 023°35'0 0.0
2016-Sep-22 03:33N 38°02' E 023°35'0 0.0
2016-Sep-22 00:33N 38°02' E 023°35'0 0.0
2016-Sep-21 23:34N 38°02' E 023°35'0 0.0
2016-Sep-21 22:34N 38°02' E 023°35'0 0.0
2016-Sep-21 19:34N 38°02' E 023°35'0 0.0
2016-Sep-21 16:33N 38°02' E 023°35'4 0.1
2016-Sep-20 10:33N 37°58' E 023°35'0 0.0
2016-Sep-20 08:33N 37°58' E 023°35'  
Track history (hours):
 
Tides and Currents Weather Stations Pressure Air Temp Water Temp Dewpoint Dewpoint Depression Visibility Wind Speed Wind Dir Waves Ship Positions

Maria

Last reported at 2016-Sep-28 16:33 UTC. Time now 2016-Sep-29 01:41 UTC.
Position N 37°57' E 023°35'.

Length 74 m; draft 4.5 m.

Type: Ship. MMSI: 237493000.

Date/timePositionNaut miles runAvg speedWind from/ knotsBaromVisibWave heightAir tempDewpointWater temp
2016-Sep-28 16:33N 37°57' E 023°35'3 2.9
2016-Sep-28 15:33N 37°56' E 023°38'0 0.0
2016-Sep-28 12:33N 37°56' E 023°38'0 0.0
2016-Sep-28 08:33N 37°56' E 023°38'3 0.2
2016-Sep-27 14:34N 37°57' E 023°35'3 3.1
2016-Sep-27 13:34N 37°55' E 023°33'4 1.2
2016-Sep-27 10:34N 37°57' E 023°36'4 0.4
2016-Sep-27 00:33N 38°02' E 023°35'1 0.2
2016-Sep-26 20:28N 38°02' E 023°36'0 0.0
2016-Sep-26 19:33N 38°02' E 023°36'1 0.2
2016-Sep-26 15:33N 38°02' E 023°35'0 0.0
2016-Sep-26 13:34N 38°02' E 023°35'0 0.0
2016-Sep-26 11:34N 38°02' E 023°35'4 1.5
2016-Sep-26 08:33N 37°58' E 023°33'1 0.1
2016-Sep-25 17:14N 37°58' E 023°35'2 3.6
2016-Sep-25 16:33N 37°56' E 023°37'0 0.5
2016-Sep-25 15:33N 37°56' E 023°38'0 0.0
2016-Sep-25 14:33N 37°56' E 023°38'0 0.0
2016-Sep-25 12:34N 37°56' E 023°38'0 0.0
2016-Sep-25 11:33N 37°56' E 023°38'0 0.0
2016-Sep-25 10:34N 37°56' E 023°38'3 2.9
2016-Sep-25 09:34N 37°58' E 023°35'0 0.0
2016-Sep-24 22:16N 37°58' E 023°35'4 5.3
2016-Sep-24 21:33N 37°54' E 023°33'1 0.5
2016-Sep-24 19:34N 37°53' E 023°33'0 0.4
2016-Sep-24 18:34N 37°54' E 023°33'4 4.3
2016-Sep-24 17:34N 37°58' E 023°35'0 0.0
2016-Sep-23 09:33N 37°58' E 023°35'0 0.0
2016-Sep-23 06:33N 37°58' E 023°35'4 0.2
2016-Sep-22 12:33N 38°02' E 023°36'1 0.1
2016-Sep-22 04:33N 38°02' E 023°35'0 0.0
2016-Sep-22 03:33N 38°02' E 023°35'0 0.0
2016-Sep-22 00:33N 38°02' E 023°35'0 0.0
2016-Sep-21 23:34N 38°02' E 023°35'0 0.0
2016-Sep-21 22:34N 38°02' E 023°35'0 0.0
2016-Sep-21 19:34N 38°02' E 023°35'0 0.0
2016-Sep-21 16:33N 38°02' E 023°35'4 0.1
2016-Sep-20 10:33N 37°58' E 023°35'0 0.0
2016-Sep-20 08:33N 37°58' E 023°35'  

Dump ship's entire track history